createdAt,value
2023-03-19T00:00:25.019Z,49.38
2023-03-19T00:03:10.603Z,49.25
2023-03-19T00:05:55.973Z,49.30
2023-03-19T00:08:42.043Z,49.25
2023-03-19T00:11:27.757Z,49.45
2023-03-19T00:14:13.496Z,49.48
2023-03-19T00:16:58.973Z,49.37
2023-03-19T00:19:44.618Z,49.33
2023-03-19T00:22:30.129Z,49.37
2023-03-19T00:25:15.273Z,49.53
2023-03-19T00:28:00.556Z,49.48
2023-03-19T00:30:45.769Z,49.48
2023-03-19T00:33:31.403Z,49.46
2023-03-19T00:36:17.298Z,49.55
2023-03-19T00:39:03.046Z,49.45
2023-03-19T00:41:50.604Z,49.53
2023-03-19T00:44:36.821Z,49.48
2023-03-19T00:47:22.608Z,49.45
2023-03-19T00:50:09.083Z,49.56
2023-03-19T00:52:54.290Z,49.60
2023-03-19T00:55:39.574Z,49.61
2023-03-19T00:58:25.109Z,49.62
2023-03-19T01:01:13.015Z,49.71
2023-03-19T01:03:59.272Z,49.64
2023-03-19T01:06:45.436Z,49.71
2023-03-19T01:09:31.052Z,49.56
2023-03-19T01:12:16.571Z,49.51
2023-03-19T01:15:02.542Z,49.42
2023-03-19T01:17:47.997Z,49.39
2023-03-19T01:20:34.795Z,49.48
2023-03-19T01:23:20.568Z,49.55
2023-03-19T01:26:06.270Z,49.64
2023-03-19T01:28:52.964Z,49.46
2023-03-19T01:31:39.889Z,49.34
2023-03-19T01:34:46.415Z,49.36
2023-03-19T01:37:34.547Z,49.35
2023-03-19T01:40:19.952Z,49.47
2023-03-19T01:43:27.026Z,49.48
2023-03-19T01:46:33.968Z,49.40
2023-03-19T01:49:38.130Z,49.47
2023-03-19T01:52:38.949Z,49.44
2023-03-19T01:55:36.063Z,49.52
2023-03-19T01:58:30.074Z,49.55
2023-03-19T02:01:57.858Z,49.58
2023-03-19T02:04:46.897Z,49.55
2023-03-19T02:07:34.781Z,49.54
2023-03-19T02:10:22.293Z,49.63
2023-03-19T02:13:08.600Z,49.64
2023-03-19T02:15:55.042Z,49.56
2023-03-19T02:18:41.656Z,49.20
2023-03-19T02:21:27.276Z,49.46
2023-03-19T02:24:17.507Z,49.40
2023-03-19T02:27:21.889Z,49.42
2023-03-19T02:30:28.427Z,49.61
2023-03-19T02:33:18.431Z,49.25
2023-03-19T02:36:06.751Z,49.37
2023-03-19T02:38:53.691Z,49.30
2023-03-19T02:41:42.059Z,49.11
2023-03-19T02:44:27.566Z,49.18
2023-03-19T02:47:12.924Z,49.25
2023-03-19T02:49:58.013Z,49.20
2023-03-19T02:52:44.436Z,49.23
2023-03-19T02:55:29.714Z,49.01
2023-03-19T02:58:15.413Z,49.15
2023-03-19T03:01:01.497Z,48.95
2023-03-19T03:03:47.357Z,49.26
2023-03-19T03:06:32.761Z,49.11
2023-03-19T03:09:20.554Z,49.17
2023-03-19T03:12:07.238Z,49.25
2023-03-19T03:14:53.152Z,49.20
2023-03-19T03:17:40.004Z,49.24
2023-03-19T03:20:25.373Z,49.31
2023-03-19T03:23:11.986Z,49.29
2023-03-19T03:25:57.525Z,49.07
2023-03-19T03:28:43.460Z,49.25
2023-03-19T03:31:29.966Z,49.11
2023-03-19T03:34:15.463Z,49.46
2023-03-19T03:37:01.002Z,49.52
2023-03-19T03:39:46.503Z,49.01
2023-03-19T03:42:32.110Z,49.71
2023-03-19T03:45:17.409Z,49.46
2023-03-19T03:48:04.180Z,49.68
2023-03-19T03:50:50.052Z,49.67
2023-03-19T03:53:39.390Z,49.60
2023-03-19T03:56:25.249Z,49.84
2023-03-19T03:59:10.715Z,49.69
2023-03-19T04:01:56.355Z,49.80
2023-03-19T04:04:41.883Z,49.78
2023-03-19T04:07:27.973Z,49.71
2023-03-19T04:10:15.463Z,49.74
2023-03-19T04:13:01.437Z,49.93
2023-03-19T04:15:48.726Z,49.92
2023-03-19T04:18:34.674Z,49.91
2023-03-19T04:21:20.216Z,49.97
2023-03-19T04:24:06.256Z,49.69
2023-03-19T04:26:53.334Z,50.14
2023-03-19T04:29:38.975Z,50.16
2023-03-19T04:32:25.149Z,50.15
2023-03-19T04:35:11.182Z,50.25
2023-03-19T04:37:57.641Z,50.23
2023-03-19T04:40:43.581Z,50.16
2023-03-19T04:43:30.071Z,50.36
2023-03-19T04:46:22.339Z,49.86
2023-03-19T04:49:08.243Z,50.06
2023-03-19T04:51:53.935Z,50.05
2023-03-19T04:54:39.176Z,49.99
2023-03-19T04:57:24.907Z,49.98
2023-03-19T05:00:14.605Z,50.65
2023-03-19T05:03:01.802Z,50.39
2023-03-19T05:05:49.617Z,50.51
2023-03-19T05:08:36.015Z,50.29
2023-03-19T05:11:21.614Z,50.31
2023-03-19T05:14:29.791Z,50.31
2023-03-19T05:17:38.145Z,50.58
2023-03-19T05:20:33.487Z,50.52
2023-03-19T05:23:23.584Z,50.75
2023-03-19T05:26:28.690Z,50.63
2023-03-19T05:29:33.119Z,50.38
2023-03-19T05:32:41.264Z,51.03
2023-03-19T05:35:33.176Z,51.26
2023-03-19T05:38:20.005Z,51.18
2023-03-19T05:41:13.461Z,50.85
2023-03-19T05:44:14.794Z,50.63
2023-03-19T05:47:19.008Z,50.49
2023-03-19T05:50:12.303Z,50.34
2023-03-19T05:53:03.006Z,50.09
2023-03-19T05:55:49.066Z,50.07
2023-03-19T05:58:34.532Z,49.95
2023-03-19T06:01:20.558Z,50.32
2023-03-19T06:04:06.548Z,50.04
2023-03-19T06:06:53.198Z,49.98
2023-03-19T06:09:39.979Z,49.74
2023-03-19T06:12:27.860Z,49.88
2023-03-19T06:15:13.754Z,50.08
2023-03-19T06:18:32.163Z,50.05
2023-03-19T06:21:18.855Z,49.97
2023-03-19T06:24:04.413Z,50.08
2023-03-19T06:26:53.709Z,50.16
2023-03-19T06:29:39.003Z,50.10
2023-03-19T06:32:39.454Z,50.46
2023-03-19T06:35:28.788Z,50.11
2023-03-19T06:38:15.846Z,50.31
2023-03-19T06:41:01.809Z,50.18
2023-03-19T06:43:47.628Z,49.91
2023-03-19T06:46:33.358Z,49.97
2023-03-19T06:49:19.472Z,50.31
2023-03-19T06:52:05.229Z,50.52
2023-03-19T06:54:51.022Z,50.32
2023-03-19T06:57:36.732Z,49.86
2023-03-19T07:00:22.784Z,49.94
2023-03-19T07:03:09.429Z,49.99
2023-03-19T07:05:54.736Z,49.94
2023-03-19T07:08:41.135Z,50.09
2023-03-19T07:11:27.094Z,50.23
2023-03-19T07:14:12.680Z,50.18
2023-03-19T07:16:58.192Z,50.17
2023-03-19T07:19:43.918Z,50.24
2023-03-19T07:22:29.169Z,50.19
2023-03-19T07:25:14.501Z,50.59
2023-03-19T07:28:00.728Z,50.72
2023-03-19T07:30:46.239Z,50.37
2023-03-19T07:33:31.662Z,50.92
2023-03-19T07:36:17.148Z,50.48
2023-03-19T07:39:03.299Z,50.35
2023-03-19T07:41:49.252Z,50.10
2023-03-19T07:44:34.482Z,50.04
2023-03-19T07:47:28.465Z,50.51
2023-03-19T07:50:14.994Z,50.21
2023-03-19T07:53:00.526Z,50.17
2023-03-19T07:55:47.210Z,49.76
2023-03-19T07:58:32.631Z,49.39
2023-03-19T08:01:18.282Z,48.68
2023-03-19T08:04:03.855Z,47.12
2023-03-19T08:06:49.181Z,47.51
2023-03-19T08:09:34.951Z,47.69
2023-03-19T08:12:20.395Z,47.46
2023-03-19T08:15:06.783Z,47.53
2023-03-19T08:18:03.845Z,47.57
2023-03-19T08:20:49.867Z,47.78
2023-03-19T08:23:35.787Z,47.53
2023-03-19T08:26:21.589Z,47.85
2023-03-19T08:29:08.378Z,48.24
2023-03-19T08:31:58.615Z,49.20
2023-03-19T08:34:44.235Z,49.04
2023-03-19T08:37:29.679Z,49.01
2023-03-19T08:40:16.437Z,48.99
2023-03-19T08:43:04.022Z,49.12
2023-03-19T08:45:49.373Z,48.94
2023-03-19T08:48:34.592Z,48.96
2023-03-19T08:51:20.371Z,48.88
2023-03-19T08:54:05.941Z,48.87
2023-03-19T08:56:51.702Z,48.71
2023-03-19T08:59:37.829Z,48.61
2023-03-19T09:02:23.567Z,48.66
2023-03-19T09:05:09.339Z,48.37
2023-03-19T09:07:54.849Z,48.49
2023-03-19T09:10:45.118Z,48.15
2023-03-19T09:13:34.681Z,48.02
2023-03-19T09:16:20.258Z,47.89
2023-03-19T09:19:05.594Z,47.78
2023-03-19T09:21:51.205Z,47.58
2023-03-19T09:24:38.750Z,47.66
2023-03-19T09:27:25.593Z,47.70
2023-03-19T09:30:11.738Z,47.39
2023-03-19T09:33:02.343Z,47.39
2023-03-19T09:35:53.440Z,47.47
2023-03-19T09:38:39.351Z,47.48
2023-03-19T09:42:03.938Z,47.54
2023-03-19T09:44:53.259Z,47.36
2023-03-19T09:47:39.655Z,47.39
2023-03-19T09:50:28.829Z,47.47
2023-03-19T09:53:22.411Z,47.39
2023-03-19T09:56:12.895Z,47.29
2023-03-19T09:58:58.855Z,47.37
2023-03-19T10:02:09.637Z,47.26
2023-03-19T10:05:23.065Z,46.99
2023-03-19T10:08:21.331Z,47.21
2023-03-19T10:11:46.522Z,47.01
2023-03-19T10:15:09.014Z,46.85
2023-03-19T10:17:54.459Z,46.89
2023-03-19T10:20:58.006Z,46.99
2023-03-19T10:23:43.435Z,46.91
2023-03-19T10:26:35.771Z,46.83
2023-03-19T10:29:23.778Z,46.75
2023-03-19T10:32:28.570Z,46.72
2023-03-19T10:35:23.036Z,46.59
2023-03-19T10:38:24.684Z,46.66
2023-03-19T10:41:19.894Z,46.34
2023-03-19T10:44:14.822Z,46.23
2023-03-19T10:47:12.711Z,46.27
2023-03-19T10:49:58.160Z,46.22
2023-03-19T10:52:44.674Z,46.14
2023-03-19T10:55:31.584Z,46.28
2023-03-19T10:58:19.851Z,47.69
2023-03-19T11:01:12.142Z,46.86
2023-03-19T11:03:59.846Z,46.95
2023-03-19T11:06:50.940Z,47.29
2023-03-19T11:09:43.172Z,46.72
2023-03-19T11:12:34.739Z,46.96
2023-03-19T11:15:23.426Z,46.51
2023-03-19T11:18:19.008Z,47.17
2023-03-19T11:21:23.952Z,46.94
2023-03-19T11:24:13.854Z,46.88
2023-03-19T11:27:00.743Z,46.91
2023-03-19T11:29:46.181Z,46.90
2023-03-19T11:32:42.303Z,46.75
2023-03-19T11:36:01.781Z,46.62
2023-03-19T11:39:07.859Z,46.51
2023-03-19T11:42:18.586Z,46.09
2023-03-19T11:45:26.363Z,46.08
2023-03-19T11:48:21.129Z,46.28
2023-03-19T11:51:22.603Z,46.82
2023-03-19T11:54:42.128Z,46.81
2023-03-19T11:57:37.090Z,46.95
2023-03-19T12:00:39.327Z,47.59
2023-03-19T12:03:50.076Z,47.67
2023-03-19T12:07:01.040Z,47.93
2023-03-19T12:10:37.152Z,48.17
2023-03-19T12:13:27.927Z,47.14
2023-03-19T12:16:38.952Z,47.88
2023-03-19T12:19:46.136Z,47.61
2023-03-19T12:23:16.474Z,47.57
2023-03-19T12:26:08.929Z,47.82
2023-03-19T12:29:04.683Z,47.68
2023-03-19T12:32:14.503Z,47.49
2023-03-19T12:35:05.820Z,47.31
2023-03-19T12:38:10.580Z,47.80
2023-03-19T12:41:03.881Z,47.11
2023-03-19T12:44:08.899Z,47.13
2023-03-19T12:46:59.734Z,47.70
2023-03-19T12:50:05.513Z,47.54
2023-03-19T12:52:59.846Z,47.58
2023-03-19T12:55:55.682Z,48.09
2023-03-19T12:59:03.489Z,47.62
2023-03-19T13:02:01.937Z,47.54
2023-03-19T13:04:55.140Z,47.30
2023-03-19T13:07:51.945Z,47.00
2023-03-19T13:10:37.766Z,47.15
2023-03-19T13:13:42.572Z,47.20
2023-03-19T13:16:34.388Z,47.10
2023-03-19T13:19:35.572Z,45.33
2023-03-19T13:22:24.692Z,45.36
2023-03-19T13:25:17.522Z,45.79
2023-03-19T13:28:21.350Z,45.86
2023-03-19T13:31:20.736Z,46.13
2023-03-19T13:34:18.338Z,46.06
2023-03-19T13:37:18.315Z,46.25
2023-03-19T13:40:06.006Z,46.38
2023-03-19T13:42:57.199Z,46.38
2023-03-19T13:45:42.953Z,46.27
2023-03-19T13:48:28.640Z,46.26
2023-03-19T13:51:20.230Z,46.32
2023-03-19T13:54:25.223Z,45.99
2023-03-19T13:57:12.812Z,45.60
2023-03-19T14:00:36.788Z,45.68
2023-03-19T14:03:33.294Z,45.51
2023-03-19T14:06:42.659Z,45.75
2023-03-19T14:09:38.533Z,45.79
2023-03-19T14:12:41.233Z,45.62
2023-03-19T14:15:28.895Z,45.77
2023-03-19T14:18:19.417Z,45.88
2023-03-19T14:21:12.797Z,45.50
2023-03-19T14:24:55.938Z,45.78
2023-03-19T14:27:45.922Z,45.73
2023-03-19T14:30:45.846Z,45.77
2023-03-19T14:33:58.138Z,45.56
2023-03-19T14:37:16.108Z,45.61
2023-03-19T14:40:16.110Z,45.64
2023-03-19T14:43:08.097Z,45.67
2023-03-19T14:46:20.833Z,45.75
2023-03-19T14:49:14.948Z,45.71
2023-03-19T14:52:03.338Z,45.88
2023-03-19T14:55:08.546Z,45.79
2023-03-19T14:57:56.663Z,45.96
2023-03-19T15:00:46.270Z,45.63
2023-03-19T15:03:34.853Z,46.08
2023-03-19T15:06:20.701Z,45.95
2023-03-19T15:09:26.820Z,45.84
2023-03-19T15:12:15.494Z,45.92
2023-03-19T15:15:09.358Z,46.33
2023-03-19T15:18:22.950Z,46.17
2023-03-19T15:21:08.666Z,46.47
2023-03-19T15:23:54.088Z,46.56
2023-03-19T15:26:39.869Z,46.47
2023-03-19T15:29:33.283Z,46.58
2023-03-19T15:32:52.239Z,46.63
2023-03-19T15:35:41.613Z,46.79
2023-03-19T15:38:32.280Z,46.98
2023-03-19T15:41:18.678Z,47.66
2023-03-19T15:44:09.112Z,48.13
2023-03-19T15:46:56.494Z,49.47
2023-03-19T15:49:49.133Z,49.93
2023-03-19T15:52:40.164Z,49.94
2023-03-19T15:55:26.422Z,49.77
2023-03-19T15:58:17.087Z,49.62
2023-03-19T16:01:02.820Z,49.22
2023-03-19T16:03:58.607Z,48.82
2023-03-19T16:06:49.421Z,48.87
2023-03-19T16:09:34.977Z,48.44
2023-03-19T16:12:40.861Z,48.45
2023-03-19T16:15:47.188Z,48.23
2023-03-19T16:18:53.487Z,49.45
2023-03-19T16:21:43.201Z,49.05
2023-03-19T16:24:34.141Z,49.60
2023-03-19T16:27:32.245Z,49.07
2023-03-19T16:30:27.645Z,48.87
2023-03-19T16:33:14.892Z,48.70
2023-03-19T16:36:00.129Z,48.71
2023-03-19T16:38:56.410Z,48.54
2023-03-19T16:41:42.337Z,48.59
2023-03-19T16:44:31.414Z,48.44
2023-03-19T16:47:17.007Z,48.26
2023-03-19T16:50:02.621Z,48.32
2023-03-19T16:52:49.557Z,48.25
2023-03-19T16:55:35.931Z,48.36
2023-03-19T16:58:24.465Z,48.08
2023-03-19T17:01:16.578Z,48.46
2023-03-19T17:04:05.955Z,48.42
2023-03-19T17:06:51.546Z,48.36
2023-03-19T17:09:37.352Z,48.55
2023-03-19T17:12:22.731Z,48.68
2023-03-19T17:15:23.876Z,50.26
2023-03-19T17:18:31.985Z,53.56
2023-03-19T17:21:48.881Z,50.56
2023-03-19T17:24:35.415Z,50.92
2023-03-19T17:27:20.650Z,50.82
2023-03-19T17:30:07.134Z,51.50
2023-03-19T17:32:56.951Z,51.23
2023-03-19T17:35:42.727Z,50.65
2023-03-19T17:38:33.280Z,50.89
2023-03-19T17:41:20.668Z,52.34
2023-03-19T17:44:08.407Z,50.91
2023-03-19T17:46:56.118Z,53.05
2023-03-19T17:49:43.312Z,50.96
2023-03-19T17:52:30.539Z,50.29
2023-03-19T17:55:19.045Z,50.73
2023-03-19T17:58:04.558Z,50.88
2023-03-19T18:00:52.300Z,50.81
2023-03-19T18:03:37.445Z,51.29
2023-03-19T18:06:27.184Z,50.68
2023-03-19T18:09:25.719Z,50.84
2023-03-19T18:12:10.966Z,50.10
2023-03-19T18:14:56.204Z,49.90
2023-03-19T18:17:46.202Z,50.27
2023-03-19T18:20:39.683Z,50.01
2023-03-19T18:23:25.102Z,50.63
2023-03-19T18:26:11.909Z,50.60
2023-03-19T18:28:57.626Z,50.79
2023-03-19T18:31:45.924Z,50.73
2023-03-19T18:34:31.807Z,51.11
2023-03-19T18:37:18.736Z,51.37
2023-03-19T18:40:06.274Z,51.23
2023-03-19T18:42:52.350Z,51.07
2023-03-19T18:45:40.211Z,50.49
2023-03-19T18:48:28.452Z,50.65
2023-03-19T18:51:13.659Z,50.38
2023-03-19T18:53:58.849Z,50.29
2023-03-19T18:56:44.991Z,50.43
2023-03-19T18:59:33.071Z,50.51
2023-03-19T19:02:37.632Z,50.29
2023-03-19T19:05:29.797Z,50.21
2023-03-19T19:08:18.634Z,50.40
2023-03-19T19:11:07.374Z,50.16
2023-03-19T19:14:00.372Z,50.10
2023-03-19T19:16:46.518Z,50.50
2023-03-19T19:19:32.063Z,50.46
2023-03-19T19:22:19.068Z,50.45
2023-03-19T19:25:04.807Z,50.67
2023-03-19T19:28:00.127Z,50.88
2023-03-19T19:30:46.844Z,50.91
2023-03-19T19:33:37.068Z,51.44
2023-03-19T19:36:26.142Z,51.66
2023-03-19T19:39:12.470Z,51.69
2023-03-19T19:42:00.689Z,51.73
2023-03-19T19:45:00.623Z,51.63
2023-03-19T19:47:46.984Z,51.90
2023-03-19T19:50:33.431Z,52.01
2023-03-19T19:53:19.801Z,52.08
2023-03-19T19:56:23.458Z,52.01
2023-03-19T19:59:15.169Z,52.18
2023-03-19T20:02:01.216Z,52.20
2023-03-19T20:04:47.685Z,52.46
2023-03-19T20:07:33.652Z,52.25
2023-03-19T20:10:20.798Z,52.48
2023-03-19T20:13:06.804Z,52.31
2023-03-19T20:15:55.831Z,52.66
2023-03-19T20:18:43.683Z,52.47
2023-03-19T20:21:31.017Z,52.61
2023-03-19T20:24:19.649Z,52.54
2023-03-19T20:27:19.142Z,52.78
2023-03-19T20:30:09.379Z,52.38
2023-03-19T20:32:56.965Z,52.58
2023-03-19T20:35:45.741Z,52.75
2023-03-19T20:38:31.349Z,52.60
2023-03-19T20:41:25.880Z,52.81
2023-03-19T20:44:24.742Z,52.71
2023-03-19T20:47:17.684Z,52.79
2023-03-19T20:50:03.777Z,52.73
2023-03-19T20:52:49.637Z,52.74
2023-03-19T20:55:37.039Z,52.70
2023-03-19T20:58:36.785Z,52.79
2023-03-19T21:01:22.285Z,52.85
2023-03-19T21:04:17.847Z,52.75
2023-03-19T21:07:03.640Z,52.57
2023-03-19T21:09:49.170Z,52.72
2023-03-19T21:12:36.286Z,52.51
2023-03-19T21:15:22.120Z,52.54
2023-03-19T21:18:08.441Z,52.64
2023-03-19T21:20:57.054Z,52.57
2023-03-19T21:23:55.948Z,52.62
2023-03-19T21:26:42.731Z,52.56
2023-03-19T21:29:33.467Z,52.66
2023-03-19T21:32:20.040Z,52.73
2023-03-19T21:35:06.597Z,52.61
2023-03-19T21:37:52.829Z,52.60
2023-03-19T21:40:38.516Z,52.42
2023-03-19T21:43:30.489Z,52.26
2023-03-19T21:46:24.723Z,52.07
2023-03-19T21:49:13.786Z,52.26
2023-03-19T21:51:59.491Z,52.08
2023-03-19T21:54:44.614Z,51.98
2023-03-19T21:57:30.169Z,52.11
2023-03-19T22:00:18.944Z,52.07
2023-03-19T22:03:04.286Z,52.18
2023-03-19T22:05:51.299Z,52.10
2023-03-19T22:08:36.590Z,52.07
2023-03-19T22:11:28.672Z,52.03
2023-03-19T22:14:19.408Z,51.84
2023-03-19T22:17:05.748Z,51.96
2023-03-19T22:19:50.976Z,51.88
2023-03-19T22:22:36.132Z,51.70
2023-03-19T22:25:22.602Z,51.82
2023-03-19T22:28:33.127Z,51.74
2023-03-19T22:31:18.916Z,51.66
2023-03-19T22:34:04.301Z,51.69
2023-03-19T22:36:49.948Z,51.50
2023-03-19T22:39:35.560Z,51.40
2023-03-19T22:42:22.524Z,51.50
2023-03-19T22:45:34.594Z,51.48
2023-03-19T22:48:20.352Z,51.31
2023-03-19T22:51:15.805Z,51.27
2023-03-19T22:54:01.380Z,51.10
2023-03-19T22:56:46.625Z,51.19
2023-03-19T22:59:32.133Z,51.13
2023-03-19T23:02:18.002Z,51.08
2023-03-19T23:05:33.866Z,50.99
2023-03-19T23:08:19.984Z,51.19
2023-03-19T23:11:05.858Z,50.99
2023-03-19T23:13:51.253Z,50.92
2023-03-19T23:16:38.759Z,50.89
2023-03-19T23:19:34.556Z,50.71
2023-03-19T23:22:19.877Z,50.75
2023-03-19T23:25:05.419Z,50.78
2023-03-19T23:27:51.358Z,50.72
2023-03-19T23:30:41.388Z,50.68
2023-03-19T23:33:27.055Z,50.60
2023-03-19T23:36:12.723Z,50.65
2023-03-19T23:38:59.298Z,50.58
2023-03-19T23:41:53.013Z,50.45
2023-03-19T23:44:38.158Z,50.52
2023-03-19T23:47:23.968Z,50.53
2023-03-19T23:50:12.519Z,50.44
2023-03-19T23:52:58.447Z,50.41
2023-03-19T23:55:43.763Z,50.46
2023-03-19T23:58:39.845Z,50.51
